Pagina principale
METAR-TAF:

METAR-TAF

Aeroporti :

Košice, Slovacchia

latitudine: 48-39-47N, longitudine: 021-14-28E, altezza: 232 m

Osservazione

Il bollettino è stato emesso 39 minuti fa, alle 13:00 UTC
Vento 5 kt da sud, variando fra est/sud-est e sud-ovest
Temperature 26°C
Umidità 45%
Pressione 1016 hPa
Visibilità 10 km o più
nessuna nube inferiore a 1500 m e nessun cumulonembo

METAR: LZKZ 171300Z 17005KT 120V230 CAVOK 26/13 Q1016 NOSIG

Ora: 15:39 (13:39 UTC)

Previsione

Il bollettino è stato emesso 2 ore e 24 minuti fa, alle 11:15 UTC
Previsione valida dal 17 alle 12 UTC al 18 alle 12 UTC
Vento 6 kt da sud/sud-ovest
Visibilità 10 km o più
nessuna nube inferiore a 1500 m e nessun cumulonembo
Temporaneamente
dal 17 alle 20 UTC al 18 alle 08 UTC
Vento 2 kt da direzioni variabili

TAF: LZKZ 171115Z 1712/1812 21006KT CAVOK TEMPO 1720/1808 VRB02KT

Osservazioni e previsioni meteorologiche di più di 4000 aeroporti (messaggi METAR e TAF).

Le stazioni disponibili sono rappresentate dai dischi gialli e rossi sulla carta.

Puntare il mouse per vedere il nome della stazione.

Clicca sopra per visualizzare le osservazioni e previsioni meteorologiche.

Per cambiare la mappa : fare clic sui pulsanti verdi con una croce nera per ingrandire, il pulsante verde con un trattino per diminuire, o sulla freccia verde per le mappe adiacenti.


METAR-TAF: